Time;durP1;ratioP1;P1;durP2;ratioP2;P2;SDS_P1;SDS_P2;PMS_P1;PMS_P2;Temp;Humidity;BMP_temperature;BMP_pressure;BME280_temperature;BME280_humidity;BME280_pressure;Samples;Min_cycle;Max_cycle;Signal;HPM_P1;HPM_P2
2021/07/20 00:02:28;;;;;;;;;;;;;;;27.27;49.58;100704.34;5092170;28;1026;-65
2021/07/20 00:04:55;;;;;;;;;;;;;;;27.27;49.82;100709.69;5092306;28;1449;-65
2021/07/20 00:07:23;;;;;;;;;;;;;;;27.27;49.92;100701.69;5057146;28;1367;-65
2021/07/20 00:09:49;;;;;;;;;;;;;;;27.27;50.25;100699.00;5091358;28;1298;-65
2021/07/20 00:12:16;;;;;;;;;;;;;;;27.26;50.21;100708.03;5073293;28;815;-65
2021/07/20 00:14:49;;;;;;;;;;;;;;;27.27;50.34;100707.03;5091468;28;1902;-66
2021/07/20 00:17:17;;;;;;;;;;;;;;;27.27;50.65;100701.69;5073465;28;1028;-65
2021/07/20 00:19:44;;;;;;;;;;;;;;;27.28;50.58;100698.03;5073343;28;1256;-65
2021/07/20 00:22:11;;;;;;;;;;;;;;;27.26;50.66;100692.00;5091605;28;829;-66
2021/07/20 00:24:37;;;;;;;;;;;;;;;27.28;50.41;100699.84;5090929;28;1381;-65
2021/07/20 00:27:04;;;;;;;;;;;;;;;27.27;50.50;100698.19;5091508;28;1087;-65
2021/07/20 00:29:32;;;;;;;;;;;;;;;27.27;50.26;100696.34;5091554;28;1302;-65
2021/07/20 00:31:58;;;;;;;;;;;;;;;27.27;50.34;100696.34;5091185;28;1087;-65
2021/07/20 00:34:25;;;;;;;;;;;;;;;27.29;50.34;100696.22;5091031;28;1363;-65
2021/07/20 00:36:52;;;;;;;;;;;;;;;27.28;50.32;100703.38;5091297;28;1984;-65
2021/07/20 00:39:19;;;;;;;;;;;;;;;27.27;50.34;100700.88;5091337;28;1293;-66
2021/07/20 00:41:45;;;;;;;;;;;;;;;27.27;50.22;100696.34;5091486;28;821;-65
2021/07/20 00:44:12;;;;;;;;;;;;;;;27.27;50.12;100693.66;5072504;28;1600;-65
2021/07/20 00:46:39;;;;;;;;;;;;;;;27.27;49.99;100696.34;5090848;28;901;-65
2021/07/20 00:49:05;;;;;;;;;;;;;;;27.26;50.06;100693.81;5072800;28;1327;-65
2021/07/20 00:51:32;;;;;;;;;;;;;;;27.26;49.72;100694.66;5091129;28;1027;-66
2021/07/20 00:53:59;;;;;;;;;;;;;;;27.25;49.50;100695.63;5090583;28;1373;-65
2021/07/20 00:56:26;;;;;;;;;;;;;;;27.26;49.75;100694.66;5072265;28;1898;-66
2021/07/20 00:58:53;;;;;;;;;;;;;;;27.26;49.94;100692.00;5090733;28;1259;-66
2021/07/20 01:01:21;;;;;;;;;;;;;;;27.26;49.63;100689.31;5091003;28;762;-66
2021/07/20 01:03:48;;;;;;;;;;;;;;;27.25;49.52;100690.28;5090566;28;1238;-66
2021/07/20 01:06:17;;;;;;;;;;;;;;;27.26;49.66;100681.28;5072348;28;1391;-66
2021/07/20 01:08:43;;;;;;;;;;;;;;;27.25;49.24;100678.75;5090815;28;1287;-67
2021/07/20 01:11:10;;;;;;;;;;;;;;;27.26;49.08;100680.44;5072377;28;996;-66
2021/07/20 01:13:38;;;;;;;;;;;;;;;27.24;48.88;100677.91;5090603;28;1385;-66
2021/07/20 01:16:06;;;;;;;;;;;;;;;27.24;48.64;100677.91;5089697;28;1938;-66
2021/07/20 01:18:33;;;;;;;;;;;;;;;27.24;48.66;100685.91;5109305;28;1274;-66
2021/07/20 01:21:00;;;;;;;;;;;;;;;27.24;48.40;100675.22;5105320;28;1881;-65
2021/07/20 01:23:34;;;;;;;;;;;;;;;27.24;48.23;100677.91;5107204;28;1675;-66
2021/07/20 01:26:01;;;;;;;;;;;;;;;27.25;48.09;100679.59;5089071;28;1075;-65
2021/07/20 01:28:28;;;;;;;;;;;;;;;27.25;47.90;100676.06;5096120;28;1775;-66
2021/07/20 01:30:58;;;;;;;;;;;;;;;27.25;47.51;100678.75;5091057;28;1028;-65
2021/07/20 01:33:26;;;;;;;;;;;;;;;27.24;47.57;100677.09;5109129;28;1259;-66
2021/07/20 01:35:54;;;;;;;;;;;;;;;27.23;47.18;100670.03;5109090;28;1909;-65
2021/07/20 01:38:21;;;;;;;;;;;;;;;27.22;47.13;100671.88;5090083;28;1905;-65
2021/07/20 01:40:49;;;;;;;;;;;;;;;27.21;46.78;100678.19;5070187;28;1256;-65
2021/07/20 01:43:19;;;;;;;;;;;;;;;27.20;46.78;100671.19;5088492;28;1295;-66
2021/07/20 01:45:46;;;;;;;;;;;;;;;27.20;46.55;100671.19;5088870;28;1695;-65
2021/07/20 01:48:13;;;;;;;;;;;;;;;27.18;46.34;100665.09;5088635;28;1275;-65
2021/07/20 01:50:41;;;;;;;;;;;;;;;27.19;46.63;100672.16;5089115;28;814;-65
2021/07/20 01:53:07;;;;;;;;;;;;;;;27.19;46.30;100664.13;5088365;28;1302;-63
2021/07/20 01:55:34;;;;;;;;;;;;;;;27.20;46.71;100665.81;5108148;28;1981;-64
2021/07/20 01:58:01;;;;;;;;;;;;;;;27.18;46.52;100657.09;5090063;28;1255;-64
2021/07/20 02:00:28;;;;;;;;;;;;;;;27.18;46.36;100662.44;5108817;28;1332;-64
2021/07/20 02:08:43;;;;;;;;;;;;;;;27.18;46.22;100656.25;5108529;28;1291;-64
2021/07/20 02:11:16;;;;;;;;;;;;;;;27.17;46.22;100659.91;5108560;28;786;-64
2021/07/20 02:13:50;;;;;;;;;;;;;;;27.18;46.14;100657.09;5090265;28;1620;-64
2021/07/20 02:16:18;;;;;;;;;;;;;;;27.18;45.98;100649.06;5089804;28;1973;-64
2021/07/20 02:18:49;;;;;;;;;;;;;;;27.17;45.75;100654.56;5090047;28;1340;-64
2021/07/20 02:21:18;;;;;;;;;;;;;;;27.17;45.44;100655.41;5108654;28;782;-64
2021/07/20 02:23:44;;;;;;;;;;;;;;;27.18;45.58;100649.06;5107850;28;1260;-65
2021/07/20 02:26:12;;;;;;;;;;;;;;;27.14;45.59;100653.88;5108409;28;855;-65
2021/07/20 02:28:39;;;;;;;;;;;;;;;27.14;45.59;100647.69;5089239;28;1807;-64
2021/07/20 02:31:08;;;;;;;;;;;;;;;27.15;45.33;100646.69;5108070;28;1031;-65
2021/07/20 02:33:36;;;;;;;;;;;;;;;27.16;45.48;100648.38;5089376;28;1311;-65
2021/07/20 02:36:04;;;;;;;;;;;;;;;27.14;45.51;100647.69;5107927;28;1906;-65
2021/07/20 02:38:32;;;;;;;;;;;;;;;27.14;45.42;100645.84;5108070;28;1267;-64
2021/07/20 02:40:59;;;;;;;;;;;;;;;27.15;45.46;100644.00;5107661;28;975;-65
2021/07/20 02:43:27;;;;;;;;;;;;;;;27.13;45.66;100643.31;5107643;28;1318;-65
2021/07/20 02:45:54;;;;;;;;;;;;;;;27.13;46.00;100646.00;5107700;28;1130;-65
2021/07/20 02:48:23;;;;;;;;;;;;;;;27.13;45.97;100643.31;5107610;28;1309;-65
2021/07/20 02:50:51;;;;;;;;;;;;;;;27.14;45.85;100643.19;5107716;28;750;-65
2021/07/20 02:53:19;;;;;;;;;;;;;;;27.12;46.13;100644.28;5107635;28;1290;-65
2021/07/20 02:55:48;;;;;;;;;;;;;;;27.13;45.74;100646.00;5107360;28;1913;-65
2021/07/20 02:58:15;;;;;;;;;;;;;;;27.11;45.70;100645.31;5089388;28;1333;-65
2021/07/20 03:00:43;;;;;;;;;;;;;;;27.11;45.78;100639.94;5107483;28;847;-65
2021/07/20 03:03:10;;;;;;;;;;;;;;;27.10;46.14;100644.44;5107482;28;1299;-65
2021/07/20 03:05:39;;;;;;;;;;;;;;;27.10;46.01;100640.94;5089356;28;877;-65
2021/07/20 03:08:07;;;;;;;;;;;;;;;27.11;46.11;100647.97;5107282;28;1309;-65
2021/07/20 03:10:35;;;;;;;;;;;;;;;27.11;46.34;100647.97;5107065;28;841;-65
2021/07/20 03:13:06;;;;;;;;;;;;;;;27.08;46.10;100640.25;5106985;28;1051;-64
2021/07/20 03:15:36;;;;;;;;;;;;;;;27.08;45.87;100633.03;5106992;28;730;-65
2021/07/20 03:18:04;;;;;;;;;;;;;;;27.08;45.93;100637.56;5107155;28;1134;-65
2021/07/20 03:20:32;;;;;;;;;;;;;;;27.10;46.05;100644.44;5107623;28;1369;-65
2021/07/20 03:23:00;;;;;;;;;;;;;;;27.10;46.24;100632.91;5106865;28;905;-65
2021/07/20 03:25:27;;;;;;;;;;;;;;;27.08;46.77;100638.38;5100648;28;1530;-65
2021/07/20 03:27:56;;;;;;;;;;;;;;;27.08;46.33;100638.38;5070022;28;1288;-63
2021/07/20 03:30:25;;;;;;;;;;;;;;;27.03;45.94;100627.28;5087787;28;1306;-64
2021/07/20 03:32:53;;;;;;;;;;;;;;;27.08;46.10;100635.72;5068334;28;822;-65
2021/07/20 03:35:20;;;;;;;;;;;;;;;27.06;46.06;100643.03;5086989;28;1314;-64
2021/07/20 03:37:47;;;;;;;;;;;;;;;27.06;46.23;100632.34;5068754;28;2007;-64
2021/07/20 03:40:14;;;;;;;;;;;;;;;27.04;46.35;100631.66;5087416;28;1275;-64
2021/07/20 03:42:42;;;;;;;;;;;;;;;27.02;46.40;100636.28;5086782;28;754;-64
2021/07/20 03:45:09;;;;;;;;;;;;;;;27.03;46.52;100631.78;5068296;28;1476;-64
2021/07/20 03:47:36;;;;;;;;;;;;;;;27.03;46.88;100637.97;5086830;28;988;-64
2021/07/20 03:50:05;;;;;;;;;;;;;;;27.04;46.55;100644.19;5068136;28;1867;-64
2021/07/20 03:52:33;;;;;;;;;;;;;;;27.03;46.47;100642.47;5068276;28;1505;-64
2021/07/20 03:55:00;;;;;;;;;;;;;;;27.03;46.75;100637.13;5085932;28;1299;-64
2021/07/20 03:57:27;;;;;;;;;;;;;;;27.02;46.78;100643.47;5086295;28;1914;-63
2021/07/20 03:59:56;;;;;;;;;;;;;;;27.01;46.68;100639.13;5087092;28;1262;-64
2021/07/20 04:02:25;;;;;;;;;;;;;;;27.03;46.41;100639.81;5086447;28;1076;-64
2021/07/20 04:04:53;;;;;;;;;;;;;;;27.02;47.12;100640.81;5087310;28;1282;-65
2021/07/20 04:07:20;;;;;;;;;;;;;;;27.03;46.96;100639.81;5086520;28;1042;-64
2021/07/20 04:09:50;;;;;;;;;;;;;;;27.01;47.23;100644.47;5086534;28;1352;-64
2021/07/20 04:12:18;;;;;;;;;;;;;;;27.00;47.17;100642.75;5085762;28;821;-65
2021/07/20 04:14:45;;;;;;;;;;;;;;;27.00;47.51;100637.41;5050270;28;1292;-65
2021/07/20 04:17:13;;;;;;;;;;;;;;;27.00;47.01;100640.94;5066773;28;1992;-66
2021/07/20 04:19:42;;;;;;;;;;;;;;;27.01;48.04;100644.47;5085276;28;1271;-65
2021/07/20 04:22:09;;;;;;;;;;;;;;;26.99;46.85;100646.44;5085586;28;1059;-65
2021/07/20 04:24:36;;;;;;;;;;;;;;;26.99;46.85;100649.13;5085682;28;1332;-65
2021/07/20 04:27:03;;;;;;;;;;;;;;;26.98;46.48;100645.59;5086363;28;1102;-65
2021/07/20 04:29:31;;;;;;;;;;;;;;;26.99;47.77;100644.59;5086428;28;1791;-65
2021/07/20 04:32:01;;;;;;;;;;;;;;;26.99;47.06;100649.13;5076054;28;1125;-66
2021/07/20 04:34:28;;;;;;;;;;;;;;;26.98;46.93;100650.09;5107331;28;1287;-64
2021/07/20 04:36:55;;;;;;;;;;;;;;;26.96;47.09;100646.72;5106296;28;1995;-65
2021/07/20 04:39:22;;;;;;;;;;;;;;;26.96;46.19;100652.06;5106232;28;1263;-64
2021/07/20 04:41:49;;;;;;;;;;;;;;;26.96;47.05;100654.75;5106712;28;786;-64
2021/07/20 04:44:16;;;;;;;;;;;;;;;26.96;46.09;100657.41;5088174;28;1595;-65
2021/07/20 04:46:44;;;;;;;;;;;;;;;26.94;46.17;100651.34;5108928;28;1083;-64
2021/07/20 04:49:12;;;;;;;;;;;;;;;26.95;46.95;100658.41;5110268;28;1292;-65
2021/07/20 04:51:39;;;;;;;;;;;;;;;26.93;46.55;100661.19;5109943;28;1205;-65
2021/07/20 04:54:08;;;;;;;;;;;;;;;26.95;46.20;100661.06;5109906;28;1272;-64
2021/07/20 04:56:35;;;;;;;;;;;;;;;26.92;46.67;100662.19;5109931;28;1909;-65
2021/07/20 04:59:14;;;;;;;;;;;;;;;26.93;46.21;100665.72;5093065;28;1279;-65
2021/07/20 05:01:41;;;;;;;;;;;;;;;26.91;46.88;100665.84;5110134;28;937;-66
2021/07/20 05:04:09;;;;;;;;;;;;;;;26.95;46.22;100666.41;5107505;28;1251;-66
2021/07/20 05:06:37;;;;;;;;;;;;;;;26.96;46.03;100666.25;5105658;28;1538;-68
2021/07/20 05:09:05;;;;;;;;;;;;;;;26.96;46.36;100668.94;5108247;28;1358;-68
2021/07/20 05:11:35;;;;;;;;;;;;;;;26.95;46.38;100661.06;5108704;28;758;-69
2021/07/20 05:14:02;;;;;;;;;;;;;;;26.94;46.59;100664.72;5108329;28;1317;-69
2021/07/20 05:16:29;;;;;;;;;;;;;;;26.96;46.58;100668.13;5108390;28;1910;-69
2021/07/20 05:18:56;;;;;;;;;;;;;;;26.95;46.45;100664.59;5090636;28;1315;-69
2021/07/20 05:21:23;;;;;;;;;;;;;;;26.98;46.65;100661.63;5110467;28;1129;-69
2021/07/20 05:23:50;;;;;;;;;;;;;;;26.95;46.65;100655.72;5109849;28;1303;-69
2021/07/20 05:26:18;;;;;;;;;;;;;;;26.93;46.08;100652.38;5074757;28;1092;-68
2021/07/20 05:28:45;;;;;;;;;;;;;;;26.97;46.33;100662.63;5109849;28;1243;-69
2021/07/20 05:31:12;;;;;;;;;;;;;;;26.98;46.10;100660.78;5083490;28;1530;-70
2021/07/20 05:33:40;;;;;;;;;;;;;;;26.97;46.08;100656.41;5089945;28;1347;-70
2021/07/20 05:36:08;;;;;;;;;;;;;;;26.98;45.83;100661.63;5090644;28;767;-67
2021/07/20 05:38:34;;;;;;;;;;;;;;;26.98;46.02;100661.63;5096570;28;1983;-67
2021/07/20 05:41:01;;;;;;;;;;;;;;;26.97;45.75;100662.63;5106825;28;1131;-68
2021/07/20 05:43:29;;;;;;;;;;;;;;;26.99;45.86;100654.47;5090209;28;1627;-67
2021/07/20 05:45:59;;;;;;;;;;;;;;;26.99;45.78;100657.13;5090730;28;1552;-67
2021/07/20 05:48:27;;;;;;;;;;;;;;;27.00;45.52;100664.16;5109373;28;1311;-66
2021/07/20 05:50:58;;;;;;;;;;;;;;;27.00;45.80;100665.00;5108927;28;1303;-68
2021/07/20 05:53:28;;;;;;;;;;;;;;;27.01;45.70;100668.53;5105593;28;1400;-67
2021/07/20 05:56:01;;;;;;;;;;;;;;;27.01;45.32;100666.69;5085048;28;1190;-66
2021/07/20 05:58:29;;;;;;;;;;;;;;;27.02;45.56;100671.03;5086320;28;1910;-68
2021/07/20 06:00:59;;;;;;;;;;;;;;;27.00;45.62;100674.84;5108713;28;1360;-67
2021/07/20 06:03:26;;;;;;;;;;;;;;;27.00;45.66;100674.84;5107304;28;1286;-67
2021/07/20 06:05:55;;;;;;;;;;;;;;;27.02;45.56;100678.25;5108249;28;1207;-67
2021/07/20 06:08:23;;;;;;;;;;;;;;;27.03;45.06;100674.56;5104874;28;1396;-68
2021/07/20 06:10:57;;;;;;;;;;;;;;;27.02;45.21;100673.72;5107969;28;1197;-68
2021/07/20 06:13:26;;;;;;;;;;;;;;;27.04;45.04;100681.59;5086759;28;1330;-68
2021/07/20 06:15:53;;;;;;;;;;;;;;;27.03;45.10;100679.91;5108016;28;1200;-68
2021/07/20 06:18:20;;;;;;;;;;;;;;;27.04;44.96;100673.59;5108915;28;2099;-67
2021/07/20 06:21:07;;;;;;;;;;;;;;;27.05;44.93;100686.78;5108865;28;1252;-67
2021/07/20 06:23:37;;;;;;;;;;;;;;;27.06;45.30;100682.28;5106702;28;1322;-68
2021/07/20 06:26:04;;;;;;;;;;;;;;;27.00;44.77;100675.69;5106239;28;1280;-68
2021/07/20 06:28:31;;;;;;;;;;;;;;;27.06;44.65;100682.28;5089563;28;1276;-68
2021/07/20 06:30:58;;;;;;;;;;;;;;;27.06;44.87;100691.16;5108688;28;1209;-69
2021/07/20 06:33:26;;;;;;;;;;;;;;;27.03;44.84;100682.56;5073067;28;1251;-69
2021/07/20 06:35:53;;;;;;;;;;;;;;;27.07;44.63;100684.00;5108027;28;1177;-67
2021/07/20 06:38:21;;;;;;;;;;;;;;;27.09;46.25;100690.03;5107593;28;1913;-67
2021/07/20 06:40:49;;;;;;;;;;;;;;;27.12;46.04;100690.59;5107328;28;1283;-68
2021/07/20 06:43:17;;;;;;;;;;;;;;;27.12;45.12;100693.25;5089050;28;1532;-67
2021/07/20 06:45:45;;;;;;;;;;;;;;;27.12;44.92;100695.09;5108185;28;1531;-68
2021/07/20 06:48:14;;;;;;;;;;;;;;;27.11;45.12;100690.75;5089227;28;2030;-70
2021/07/20 06:50:41;;;;;;;;;;;;;;;27.11;44.97;100686.22;5105398;28;1205;-68
2021/07/20 06:53:11;;;;;;;;;;;;;;;27.13;46.56;100686.09;5108356;28;1295;-73
2021/07/20 06:55:43;;;;;;;;;;;;;;;27.14;46.48;100687.78;5088238;28;1439;-72
2021/07/20 06:58:12;;;;;;;;;;;;;;;27.15;46.97;100700.16;5107568;28;1976;-72
2021/07/20 07:00:41;;;;;;;;;;;;;;;27.16;46.75;100701.84;5107798;28;1205;-71
2021/07/20 07:03:11;;;;;;;;;;;;;;;27.18;47.14;100701.72;5089621;28;1281;-71
2021/07/20 07:05:39;;;;;;;;;;;;;;;27.19;47.04;100706.06;5105033;27;1260;-70
2021/07/20 07:08:09;;;;;;;;;;;;;;;27.19;47.34;100698.03;5088016;28;1149;-70
2021/07/20 07:10:37;;;;;;;;;;;;;;;27.19;47.07;100704.25;5105886;28;1261;-69
2021/07/20 07:13:07;;;;;;;;;;;;;;;27.20;47.09;100689.03;5104889;28;1252;-68
2021/07/20 07:15:35;;;;;;;;;;;;;;;27.21;47.46;100699.59;5105366;28;1247;-71
2021/07/20 07:18:02;;;;;;;;;;;;;;;27.21;47.26;100696.91;5087996;28;1909;-68
2021/07/20 07:20:30;;;;;;;;;;;;;;;27.21;47.36;100698.75;5106440;28;1335;-68
2021/07/20 07:23:00;;;;;;;;;;;;;;;27.22;47.22;100698.59;5107163;28;1173;-68
2021/07/20 07:25:27;;;;;;;;;;;;;;;27.23;47.14;100702.97;5088272;28;1609;-68
2021/07/20 07:27:55;;;;;;;;;;;;;;;27.24;47.51;100699.28;5107395;28;1236;-68
2021/07/20 07:30:22;;;;;;;;;;;;;;;27.25;47.46;100705.50;5085841;28;1379;-68
2021/07/20 07:32:49;;;;;;;;;;;;;;;27.24;47.41;100704.63;5107385;28;1216;-69
2021/07/20 07:35:16;;;;;;;;;;;;;;;27.24;47.49;100704.63;5107105;28;1350;-66
2021/07/20 07:37:45;;;;;;;;;;;;;;;27.25;47.48;100708.16;5104396;28;1946;-68
2021/07/20 07:40:14;;;;;;;;;;;;;;;27.27;46.90;100706.22;5104458;28;1268;-68
2021/07/20 07:42:41;;;;;;;;;;;;;;;27.29;47.28;100706.91;5115816;28;1205;-69
2021/07/20 07:45:10;;;;;;;;;;;;;;;27.29;47.18;100707.75;5125974;28;1362;-70
2021/07/20 07:47:40;;;;;;;;;;;;;;;27.28;47.23;100700.72;5126973;28;1126;-71
2021/07/20 07:50:07;;;;;;;;;;;;;;;27.28;46.98;100706.06;5098415;28;1537;-68
2021/07/20 07:52:35;;;;;;;;;;;;;;;27.31;47.16;100712.94;5107417;28;1315;-69
2021/07/20 07:55:03;;;;;;;;;;;;;;;27.31;46.94;100710.25;5086221;28;1272;-70
2021/07/20 07:57:30;;;;;;;;;;;;;;;27.30;46.53;100703.25;5107628;28;1914;-70
2021/07/20 07:59:59;;;;;;;;;;;;;;;27.31;46.58;100708.44;5106042;28;1276;-71
2021/07/20 08:02:30;;;;;;;;;;;;;;;27.31;46.59;100708.44;5089024;28;1311;-69
2021/07/20 08:05:00;;;;;;;;;;;;;;;27.32;46.70;100709.28;5107083;28;1365;-69
2021/07/20 08:07:28;;;;;;;;;;;;;;;27.38;46.43;100711.38;5088256;28;1255;-68
2021/07/20 08:09:56;;;;;;;;;;;;;;;27.41;47.23;100708.44;5101468;28;1812;-68
2021/07/20 08:12:23;;;;;;;;;;;;;;;27.37;46.71;100705.19;5094775;28;1728;-68
2021/07/20 08:14:59;;;;;;;;;;;;;;;27.38;46.97;100714.06;5086773;28;1558;-69
2021/07/20 08:17:26;;;;;;;;;;;;;;;27.37;47.11;100702.50;5085506;28;1926;-68
2021/07/20 08:19:55;;;;;;;;;;;;;;;27.37;46.62;100707.00;5102844;28;1786;-69
2021/07/20 08:22:23;;;;;;;;;;;;;;;27.36;46.61;100710.69;5108362;28;1143;-69
2021/07/20 08:24:55;;;;;;;;;;;;;;;27.36;46.64;100710.69;5090155;28;1255;-69
2021/07/20 08:27:35;;;;;;;;;;;;;;;27.37;46.56;100710.53;5110756;28;1126;-66
2021/07/20 08:30:03;;;;;;;;;;;;;;;27.38;46.61;100712.25;5110381;28;1251;-68
2021/07/20 08:32:32;;;;;;;;;;;;;;;27.38;46.87;100712.25;5110685;28;851;-69
2021/07/20 08:35:01;;;;;;;;;;;;;;;27.38;45.87;100717.59;5092281;28;1315;-68
2021/07/20 08:37:50;;;;;;;;;;;;;;;27.40;46.41;100710.25;5091772;28;1984;-66
2021/07/20 08:40:17;;;;;;;;;;;;;;;27.43;46.88;100718.03;5092620;28;1240;-69
2021/07/20 08:43:03;;;;;;;;;;;;;;;27.46;46.74;100709.72;5110576;28;852;-68
2021/07/20 08:45:32;;;;;;;;;;;;;;;27.51;47.03;100720.00;5107607;28;1449;-65
2021/07/20 08:48:08;;;;;;;;;;;;;;;27.51;47.73;100715.47;5093255;28;1176;-67
2021/07/20 08:50:47;;;;;;;;;;;;;;;27.47;48.11;100711.41;5082163;28;1226;-68
2021/07/20 08:53:25;;;;;;;;;;;;;;;27.52;48.42;100721.66;5087233;28;1697;-62
2021/07/20 08:55:53;;;;;;;;;;;;;;;27.50;48.51;100724.50;5108338;28;1710;-64
2021/07/20 08:58:30;;;;;;;;;;;;;;;27.51;49.22;100726.16;5109661;28;1909;-66
2021/07/20 09:01:04;;;;;;;;;;;;;;;27.58;49.29;100724.59;5109213;28;1125;-64
2021/07/20 09:03:39;;;;;;;;;;;;;;;27.55;49.30;100722.22;5110498;28;1381;-64
2021/07/20 09:06:15;;;;;;;;;;;;;;;27.56;49.40;100725.75;5108314;28;1105;-64
2021/07/20 09:09:02;;;;;;;;;;;;;;;27.54;49.55;100727.72;5093678;28;1290;-63
2021/07/20 09:11:55;;;;;;;;;;;;;;;27.55;51.21;100735.59;5109054;28;1325;-64
2021/07/20 09:14:44;;;;;;;;;;;;;;;27.58;49.95;100727.28;5089594;28;1243;-63
2021/07/20 09:17:30;;;;;;;;;;;;;;;27.57;50.37;100728.25;5110033;28;1991;-64
2021/07/20 09:20:04;;;;;;;;;;;;;;;27.56;50.69;100731.09;5071376;28;1640;-65
2021/07/20 09:22:39;;;;;;;;;;;;;;;27.55;50.67;100719.53;5090462;28;838;-65
2021/07/20 09:25:10;;;;;;;;;;;;;;;27.56;51.00;100726.59;5103442;27;1609;-65
2021/07/20 09:27:43;;;;;;;;;;;;;;;27.57;50.89;100733.59;5109376;28;1170;-66
2021/07/20 09:30:16;;;;;;;;;;;;;;;27.61;51.31;100726.13;5088285;28;1461;-63
2021/07/20 09:32:44;;;;;;;;;;;;;;;27.60;51.32;100725.28;5109538;28;809;-63
2021/07/20 09:35:22;;;;;;;;;;;;;;;27.59;50.97;100728.13;5109308;28;1301;-62
2021/07/20 09:38:08;;;;;;;;;;;;;;;27.58;50.95;100724.59;5108020;28;1910;-63
2021/07/20 09:40:53;;;;;;;;;;;;;;;27.57;50.80;100720.22;5105813;28;1172;-64
2021/07/20 09:43:23;;;;;;;;;;;;;;;27.57;51.00;100722.09;5087390;28;1248;-63
2021/07/20 09:45:58;;;;;;;;;;;;;;;27.56;51.13;100725.75;5081379;28;1196;-62
2021/07/20 09:48:38;;;;;;;;;;;;;;;27.56;51.11;100721.25;5107598;28;1643;-64
2021/07/20 09:51:08;;;;;;;;;;;;;;;27.56;51.30;100721.25;5105132;28;1121;-63
2021/07/20 09:53:38;;;;;;;;;;;;;;;27.56;51.09;100715.88;5108346;28;1242;-64
2021/07/20 09:56:16;;;;;;;;;;;;;;;27.59;51.22;100723.63;5088139;28;1288;-64
2021/07/20 09:58:51;;;;;;;;;;;;;;;27.58;51.13;100715.72;5105640;28;1909;-64
2021/07/20 10:01:46;;;;;;;;;;;;;;;27.58;51.57;100713.91;5071960;28;1046;-62
2021/07/20 10:04:18;;;;;;;;;;;;;;;27.57;51.42;100722.91;5100612;28;1327;-64
2021/07/20 10:06:51;;;;;;;;;;;;;;;27.59;51.55;100712.91;5106570;28;1164;-63
2021/07/20 10:09:25;;;;;;;;;;;;;;;27.59;52.75;100728.97;5086422;28;1357;-66
2021/07/20 10:11:59;;;;;;;;;;;;;;;27.59;53.01;100718.28;5107734;28;1122;-65
2021/07/20 10:14:38;;;;;;;;;;;;;;;27.61;53.72;100732.34;5103503;28;1403;-64
2021/07/20 10:17:25;;;;;;;;;;;;;;;27.62;52.73;100720.66;5108021;28;1155;-65
2021/07/20 10:19:57;;;;;;;;;;;;;;;27.62;52.55;100719.81;5106011;28;1802;-65
2021/07/20 10:22:27;;;;;;;;;;;;;;;27.64;52.46;100724.03;5108061;28;857;-63
2021/07/20 10:25:01;;;;;;;;;;;;;;;27.68;54.38;100725.44;5105063;28;1452;-63
2021/07/20 10:27:36;;;;;;;;;;;;;;;27.70;53.94;100717.25;5090385;28;1189;-66
2021/07/20 10:30:09;;;;;;;;;;;;;;;27.68;54.68;100720.06;5082032;28;1468;-62
2021/07/20 10:32:55;;;;;;;;;;;;;;;27.67;54.18;100713.03;5096328;28;896;-64
2021/07/20 10:35:27;;;;;;;;;;;;;;;27.70;54.47;100722.59;5086738;28;1272;-62
2021/07/20 10:37:56;;;;;;;;;;;;;;;27.69;53.67;100720.91;5108128;28;1906;-62
2021/07/20 10:40:25;;;;;;;;;;;;;;;27.66;52.90;100727.38;5086246;28;1463;-61
2021/07/20 10:42:58;;;;;;;;;;;;;;;27.67;53.28;100717.53;5108119;28;916;-62
2021/07/20 10:45:27;;;;;;;;;;;;;;;27.66;53.07;100716.69;5104353;28;1552;-62
2021/07/20 10:48:02;;;;;;;;;;;;;;;27.67;52.45;100721.06;5108252;28;1097;-62
2021/07/20 10:50:42;;;;;;;;;;;;;;;27.67;52.47;100713.03;5104167;28;1400;-63
2021/07/20 10:53:33;;;;;;;;;;;;;;;27.65;52.16;100716.84;5089093;28;1551;-61
2021/07/20 10:56:19;;;;;;;;;;;;;;;27.68;52.19;100725.44;5091940;28;1149;-63
2021/07/20 10:58:51;;;;;;;;;;;;;;;27.67;51.83;100718.38;5107708;28;1890;-61
2021/07/20 11:01:21;;;;;;;;;;;;;;;27.68;52.05;100713.88;5103770;28;1354;-62
2021/07/20 11:03:57;;;;;;;;;;;;;;;27.67;51.74;100721.06;5106895;28;1310;-62
2021/07/20 11:06:25;;;;;;;;;;;;;;;27.68;51.37;100721.91;5104204;28;1204;-62
2021/07/20 11:08:54;;;;;;;;;;;;;;;27.71;51.36;100715.41;5105411;28;1184;-62
2021/07/20 11:11:27;;;;;;;;;;;;;;;27.67;51.39;100715.69;5103754;28;1151;-62
2021/07/20 11:13:58;;;;;;;;;;;;;;;27.73;51.27;100724.13;5106545;28;1275;-61
2021/07/20 11:16:26;;;;;;;;;;;;;;;27.72;51.24;100720.63;5086655;28;1118;-62
2021/07/20 11:18:54;;;;;;;;;;;;;;;27.73;51.21;100713.41;5106410;28;1971;-61
2021/07/20 11:21:24;;;;;;;;;;;;;;;27.68;51.25;100712.03;5087237;28;1146;-62
2021/07/20 11:23:52;;;;;;;;;;;;;;;27.71;51.24;100720.75;5088217;28;1406;-62
2021/07/20 11:26:21;;;;;;;;;;;;;;;27.71;51.80;100718.09;5103754;28;1240;-63
2021/07/20 11:28:49;;;;;;;;;;;;;;;27.67;51.85;100721.06;5107257;28;1307;-62
2021/07/20 11:31:25;;;;;;;;;;;;;;;27.68;51.90;100720.06;5101625;28;1199;-60
2021/07/20 11:34:08;;;;;;;;;;;;;;;27.68;51.83;100709.38;5103721;28;1268;-62
2021/07/20 11:36:39;;;;;;;;;;;;;;;27.71;51.50;100716.25;5104260;27;1144;-62
2021/07/20 11:39:07;;;;;;;;;;;;;;;27.76;52.39;100713.97;5104058;28;1961;-63
2021/07/20 11:41:42;;;;;;;;;;;;;;;27.74;52.01;100701.75;5084929;28;1314;-65
2021/07/20 11:44:22;;;;;;;;;;;;;;;27.76;52.19;100707.78;5107008;28;1436;-65
2021/07/20 11:46:53;;;;;;;;;;;;;;;27.75;51.88;100703.44;5100749;28;1506;-65
2021/07/20 11:49:29;;;;;;;;;;;;;;;27.76;52.69;100705.09;5074950;28;1522;-65
2021/07/20 11:52:04;;;;;;;;;;;;;;;27.77;52.38;100710.31;5087294;28;1169;-64
2021/07/20 11:55:04;;;;;;;;;;;;;;;27.78;52.65;100709.34;5068504;28;1508;-66
2021/07/20 11:57:48;;;;;;;;;;;;;;;27.77;52.69;100704.97;5056878;28;1740;-66
2021/07/20 12:00:35;;;;;;;;;;;;;;;27.81;52.08;100702.84;5110735;28;1978;-66
2021/07/20 12:03:26;;;;;;;;;;;;;;;27.79;52.15;100704.81;5043046;28;1398;-67
2021/07/20 12:06:12;;;;;;;;;;;;;;;27.79;51.96;100694.94;5111446;28;1037;-66
2021/07/20 12:08:44;;;;;;;;;;;;;;;27.81;51.96;100700.16;5091589;28;1569;-65
2021/07/20 12:11:16;;;;;;;;;;;;;;;27.83;51.51;100688.31;5100937;28;1084;-64
2021/07/20 12:13:44;;;;;;;;;;;;;;;27.84;51.38;100687.34;5105827;28;1498;-60
2021/07/20 12:16:11;;;;;;;;;;;;;;;27.81;51.22;100686.78;5097444;28;1466;-62
2021/07/20 12:18:48;;;;;;;;;;;;;;;27.82;51.14;100683.09;5091886;28;1913;-62
2021/07/20 12:21:18;;;;;;;;;;;;;;;27.81;50.85;100692.16;5076605;28;1444;-61
2021/07/20 12:23:45;;;;;;;;;;;;;;;27.82;50.67;100680.41;5085387;28;1330;-61
2021/07/20 12:26:33;;;;;;;;;;;;;;;27.82;50.00;100673.25;5107639;28;1344;-61
2021/07/20 12:29:01;;;;;;;;;;;;;;;27.84;50.02;100686.50;5093373;28;1395;-61
2021/07/20 12:31:29;;;;;;;;;;;;;;;27.83;50.03;100674.09;5091387;28;1197;-62
2021/07/20 12:33:56;;;;;;;;;;;;;;;27.84;49.75;100684.66;5111755;28;1338;-62
2021/07/20 12:36:23;;;;;;;;;;;;;;;27.85;49.87;100678.28;5108757;28;1172;-61
2021/07/20 12:39:09;;;;;;;;;;;;;;;27.87;49.35;100680.84;5092936;28;1910;-60
2021/07/20 12:41:36;;;;;;;;;;;;;;;27.87;49.72;100678.16;5109392;28;1174;-60
2021/07/20 12:44:03;;;;;;;;;;;;;;;27.86;49.56;100679.16;5093451;28;1665;-61
2021/07/20 12:46:35;;;;;;;;;;;;;;;27.88;49.25;100680.69;5108097;28;1137;-61
2021/07/20 12:49:02;;;;;;;;;;;;;;;27.82;49.22;100683.94;5111844;28;1397;-62
2021/07/20 12:51:29;;;;;;;;;;;;;;;27.86;49.38;100684.50;5107898;28;1199;-61
2021/07/20 12:53:56;;;;;;;;;;;;;;;27.87;49.23;100688.88;5111897;28;1219;-61
2021/07/20 12:56:24;;;;;;;;;;;;;;;27.92;48.84;100678.56;5108120;28;1558;-61
2021/07/20 12:58:51;;;;;;;;;;;;;;;27.95;49.34;100680.94;5111729;28;1910;-62
2021/07/20 13:01:22;;;;;;;;;;;;;;;27.96;49.11;100670.09;5105213;27;1254;-62
2021/07/20 13:03:53;;;;;;;;;;;;;;;28.08;49.25;100678.78;5095405;28;1325;-61
2021/07/20 13:06:20;;;;;;;;;;;;;;;28.06;48.83;100680.75;5088064;28;1166;-61
2021/07/20 13:08:48;;;;;;;;;;;;;;;27.99;49.10;100680.50;5110716;28;1370;-64
2021/07/20 13:11:15;;;;;;;;;;;;;;;27.97;48.98;100676.25;5102229;28;1146;-66